Time;durP1;ratioP1;P1;durP2;ratioP2;P2;SDS_P1;SDS_P2;PMS_P1;PMS_P2;Temp;Humidity;BMP_temperature;BMP_pressure;BME280_temperature;BME280_humidity;BME280_pressure;Samples;Min_cycle;Max_cycle;Signal;HPM_P1;HPM_P2
2021/12/07 00:00:38;;;;;;;;;;;;;;;;;;;;;
2021/12/07 00:12:57;;;;;;;;;;;;;;;;;;;;;
2021/12/07 00:16:25;;;;;;;;;;;;;;;;;;;;;
2021/12/07 00:26:41;;;;;;;;;;;;;;;;;;;;;
2021/12/07 00:36:45;;;;;;;;;;;;;;;;;;;;;
2021/12/07 00:43:32;;;;;;;;;;;;;;;;;;;;;
2021/12/07 00:46:52;;;;;;;;;;;;;;;;;;;;;
2021/12/07 00:53:19;;;;;;;6.78;5.47;;;3.10;95.50;;;;;;6018095;23;20476;-90
2021/12/07 00:56:35;;;;;;;;;;;;;;;;;;;;;
2021/12/07 01:03:17;;;;;;;;;;;;;;;;;;;;;
2021/12/07 01:26:26;;;;;;;;;;;;;;;;;;;;;
2021/12/07 02:04:15;;;;;;;9.88;8.02;;;3.20;95.70;;;;;;6175280;23;20331;-90
2021/12/07 02:07:09;;;;;;;;;;;;;;;;;;;;;
2021/12/07 02:10:12;;;;;;;9.98;8.05;;;3.20;95.80;;;;;;6186414;23;20080;-89
2021/12/07 02:13:20;;;;;;;10.43;7.85;;;3.20;95.70;;;;;;6209906;23;20383;-89
2021/12/07 02:16:42;;;;;;;10.00;7.95;;;3.20;95.80;;;;;;6188861;23;20021;-89
2021/12/07 02:22:22;;;;;;;11.38;8.80;;;3.20;95.80;;;;;;6174446;23;20025;-89
2021/12/07 02:32:06;;;;;;;;;;;;;;;;;;;;;
2021/12/07 02:34:54;;;;;;;11.52;9.18;;;3.20;95.80;;;;;;6214889;23;20001;-89
2021/12/07 02:38:34;;;;;;;;;;;;;;;;;;;;;
2021/12/07 02:41:25;;;;;;;;;;;;;;;;;;;;;
2021/12/07 02:44:29;;;;;;;;;;;;;;;;;;;;;
2021/12/07 02:47:39;;;;;;;11.82;9.80;;;3.20;95.80;;;;;;6187387;23;20498;-89
2021/12/07 02:50:40;;;;;;;;;;;;;;;;;;;;;
2021/12/07 02:53:24;;;;;;;;;;;;;;;;;;;;;
2021/12/07 03:30:59;;;;;;;13.55;9.27;;;3.20;96.00;;;;;;6173937;23;20300;-90
2021/12/07 03:33:58;;;;;;;;;;;;;;;;;;;;;
2021/12/07 03:36:53;;;;;;;12.88;9.73;;;3.10;95.90;;;;;;6217500;23;20093;-89
2021/12/07 03:39:37;;;;;;;14.57;9.52;;;3.20;96.00;;;;;;6154417;23;20467;-88
2021/12/07 03:42:36;;;;;;;;;;;;;;;;;;;;;
2021/12/07 03:45:37;;;;;;;14.07;9.18;;;3.20;96.00;;;;;;6218581;23;20080;-89
2021/12/07 03:51:41;;;;;;;13.45;8.23;;;3.10;95.90;;;;;;6201713;23;20004;-89
2021/12/07 03:54:57;;;;;;;;;;;;;;;;;;;;;
2021/12/07 03:57:56;;;;;;;11.70;8.77;;;3.10;96.00;;;;;;6205954;23;20087;-92
2021/12/07 04:00:40;;;;;;;;;;;;;;;;;;;;;
2021/12/07 04:10:27;;;;;;;;;;;;;;;;;;;;;
2021/12/07 04:16:42;;;;;;;;;;;;;;;;;;;;;
2021/12/07 04:23:00;;;;;;;;;;;;;;;;;;;;;
2021/12/07 04:26:09;;;;;;;10.05;6.00;;;3.30;96.10;;;;;;6217421;23;20080;-88
2021/12/07 04:29:05;;;;;;;;;;;;;;;;;;;;;
2021/12/07 04:32:09;;;;;;;10.95;5.53;;;3.40;96.20;;;;;;6217200;23;20502;-90
2021/12/07 04:34:59;;;;;;;10.88;4.97;;;3.40;96.20;;;;;;6197936;23;20023;-89
2021/12/07 04:37:36;;;;;;;11.38;5.13;;;3.40;96.30;;;;;;6194593;23;20064;-90
2021/12/07 04:40:48;;;;;;;9.32;5.82;;;3.50;96.30;;;;;;6215839;23;20001;-89
2021/12/07 04:43:21;;;;;;;12.43;5.43;;;3.50;96.30;;;;;;6182635;23;20027;-89
2021/12/07 04:59:52;;;;;;;;;;;;;;;;;;;;;
2021/12/07 05:09:22;;;;;;;13.15;5.40;;;3.70;96.40;;;;;;6174019;23;20084;-90
2021/12/07 05:39:50;;;;;;;12.40;5.00;;;3.70;96.40;;;;;;6217103;23;20497;-87
2021/12/07 05:42:21;;;;;;;;;;;3.70;96.40;;;;;;6215705;23;20003;-90
2021/12/07 05:45:12;;;;;;;18.15;5.85;;;3.70;96.40;;;;;;6216504;23;20355;-90
2021/12/07 05:48:18;;;;;;;;;;;;;;;;;;;;;
2021/12/07 05:51:17;;;;;;;11.98;4.85;;;3.70;96.40;;;;;;6216695;23;20080;-90
2021/12/07 05:54:01;;;;;;;;;;;;;;;;;;;;;
2021/12/07 05:56:27;;;;;;;10.80;4.47;;;3.70;96.40;;;;;;6216946;23;20083;-90
2021/12/07 05:59:21;;;;;;;9.40;3.63;;;3.70;96.40;;;;;;6215136;23;20088;-90
2021/12/07 06:02:25;;;;;;;10.52;5.25;;;3.70;96.40;;;;;;6215950;23;20104;-90
2021/12/07 06:05:31;;;;;;;10.30;3.63;;;3.70;96.40;;;;;;6218321;23;20003;-88
2021/12/07 06:08:21;;;;;;;7.60;3.42;;;3.70;96.40;;;;;;6091886;23;20005;-89
2021/12/07 06:11:18;;;;;;;10.90;3.42;;;3.70;96.40;;;;;;6216878;23;20012;-89
2021/12/07 06:14:18;;;;;;;14.93;5.03;;;3.70;96.40;;;;;;6189811;23;20016;-90
2021/12/07 06:20:24;;;;;;;23.13;7.63;;;3.70;96.40;;;;;;6201953;23;20008;-90
2021/12/07 06:26:16;;;;;;;9.30;3.80;;;3.70;96.40;;;;;;6187822;23;20428;-89
2021/12/07 06:29:39;;;;;;;;;;;;;;;;;;;;;
2021/12/07 06:32:33;;;;;;;11.82;4.07;;;3.70;96.40;;;;;;6182696;23;20423;-91
2021/12/07 06:37:54;;;;;;;;;;;3.70;96.40;;;;;;6164431;23;20438;-88
2021/12/07 06:40:28;;;;;;;14.25;3.70;;;3.70;96.40;;;;;;6187168;23;19911;-87
2021/12/07 06:43:21;;;;;;;;;;;;;;;;;;;;;
2021/12/07 06:49:20;;;;;;;;;;;;;;;;;;;;;
2021/12/07 06:55:31;;;;;;;10.32;3.78;;;3.70;96.50;;;;;;6152367;23;20033;-86
2021/12/07 06:58:06;;;;;;;9.63;3.08;;;3.70;96.50;;;;;;6163770;23;20085;-88
2021/12/07 07:00:42;;;;;;;12.00;3.35;;;3.70;96.50;;;;;;6210756;23;20012;-89
2021/12/07 07:03:45;;;;;;;;;;;;;;;;;;;;;
2021/12/07 07:06:22;;;;;;;9.57;3.15;;;3.70;96.50;;;;;;6188652;23;20084;-89
2021/12/07 07:08:52;;;;;;;10.95;3.75;;;3.70;96.50;;;;;;6210845;23;20103;-89
2021/12/07 07:11:19;;;;;;;10.55;3.53;;;3.70;96.50;;;;;;6186243;23;20009;-88
2021/12/07 07:14:15;;;;;;;;;;;;;;;;;;;;;
2021/12/07 07:16:48;;;;;;;9.15;3.15;;;3.60;96.50;;;;;;6185008;23;20081;-88
2021/12/07 07:19:44;;;;;;;8.90;3.22;;;3.60;96.50;;;;;;6211766;23;20453;-88
2021/12/07 07:22:18;;;;;;;9.07;2.75;;;3.60;96.50;;;;;;6214514;23;20017;-87
2021/12/07 07:24:51;;;;;;;14.98;3.30;;;3.60;96.50;;;;;;6215869;23;20036;-87
2021/12/07 07:27:20;;;;;;;12.23;3.45;;;3.60;96.50;;;;;;6217291;23;20004;-87
2021/12/07 07:29:58;;;;;;;11.77;3.35;;;3.60;96.50;;;;;;6215822;23;20000;-87
2021/12/07 07:32:32;;;;;;;48.55;26.27;;;3.60;96.50;;;;;;6215589;23;20008;-88
2021/12/07 07:34:58;;;;;;;47.28;23.13;;;3.60;96.50;;;;;;6166378;23;20011;-88
2021/12/07 07:37:50;;;;;;;29.27;14.40;;;3.60;96.50;;;;;;6190550;23;20079;-88
2021/12/07 07:40:26;;;;;;;19.17;7.55;;;3.60;96.50;;;;;;6216074;23;20456;-89
2021/12/07 07:43:01;;;;;;;14.98;5.25;;;3.60;96.50;;;;;;6215781;23;20011;-88
2021/12/07 07:45:41;;;;;;;13.20;4.57;;;3.60;96.50;;;;;;6190932;23;20454;-89
2021/12/07 07:48:15;;;;;;;12.88;4.07;;;3.60;96.50;;;;;;6215922;23;20532;-88
2021/12/07 07:50:50;;;;;;;12.05;3.90;;;3.60;96.50;;;;;;6216124;23;19997;-90
2021/12/07 07:53:29;;;;;;;9.48;3.33;;;3.60;96.50;;;;;;6214991;23;20013;-88
2021/12/07 07:56:23;;;;;;;11.40;4.85;;;3.60;96.50;;;;;;6215868;23;20013;-88
2021/12/07 07:58:57;;;;;;;16.83;6.07;;;3.60;96.50;;;;;;6215989;23;19997;-88
2021/12/07 08:01:52;;;;;;;;;;;;;;;;;;;;;
2021/12/07 08:04:38;;;;;;;16.23;4.00;;;3.60;96.50;;;;;;6217593;23;20084;-87
2021/12/07 08:07:15;;;;;;;15.95;4.25;;;3.60;96.50;;;;;;6215894;23;20000;-88
2021/12/07 08:09:53;;;;;;;;;;;;;;;;;;;;;
2021/12/07 08:16:27;;;;;;;8.90;2.50;;;3.60;96.50;;;;;;6153531;23;20010;-92
2021/12/07 08:19:48;;;;;;;8.38;3.05;;;3.60;96.50;;;;;;6094557;23;20092;-88
2021/12/07 08:22:34;;;;;;;8.82;2.70;;;3.70;96.60;;;;;;6241000;23;19996;-84
2021/12/07 08:25:19;;;;;;;;;;;;;;;;;;;;;
2021/12/07 08:27:56;;;;;;;13.05;4.10;;;3.70;96.60;;;;;;6218000;23;20079;-89
2021/12/07 08:37:12;;;;;;;11.48;4.65;;;3.80;96.60;;;;;;6169485;23;20005;-90
2021/12/07 08:40:43;;;;;;;;;;;;;;;;;;;;;
2021/12/07 08:43:26;;;;;;;14.15;4.18;;;3.80;96.60;;;;;;6211827;23;20059;-88
2021/12/07 08:46:14;;;;;;;10.35;4.47;;;3.80;96.60;;;;;;6215562;23;20007;-91
2021/12/07 08:48:42;;;;;;;16.05;4.90;;;3.90;96.60;;;;;;6216052;23;20004;-88
2021/12/07 08:52:01;;;;;;;8.40;4.03;;;3.90;96.50;;;;;;6189931;23;20024;-88
2021/12/07 09:01:18;;;;;;;11.35;5.28;;;4.00;96.50;;;;;;6160354;23;20013;-90
2021/12/07 09:04:18;;;;;;;10.50;5.47;;;4.00;96.50;;;;;;6215673;23;20011;-90
2021/12/07 09:14:29;;;;;;;24.10;11.75;;;4.00;96.60;;;;;;6066238;23;20401;-89
2021/12/07 09:17:11;;;;;;;20.75;8.65;;;4.10;96.70;;;;;;6070851;23;20007;-88
2021/12/07 09:26:18;;;;;;;19.73;5.97;;;4.10;96.70;;;;;;6121455;23;20002;-88
2021/12/07 09:29:14;;;;;;;;;;;;;;;;;;;;;
2021/12/07 09:36:11;;;;;;;12.80;5.57;;;4.20;96.70;;;;;;6114317;23;20100;-89
2021/12/07 09:39:08;;;;;;;;;;;;;;;;;;;;;
2021/12/07 09:41:49;;;;;;;14.95;5.65;;;4.20;96.80;;;;;;6097274;23;19994;-89
2021/12/07 09:44:18;;;;;;;12.05;5.65;;;4.20;96.70;;;;;;6149871;23;20011;-89
2021/12/07 09:46:44;;;;;;;17.55;6.50;;;4.30;96.70;;;;;;6134852;23;19998;-87
2021/12/07 09:49:19;;;;;;;14.38;6.43;;;4.30;96.70;;;;;;6126047;23;20020;-87
2021/12/07 09:51:48;;;;;;;12.90;6.40;;;4.30;96.70;;;;;;6100436;23;20002;-87
2021/12/07 09:55:25;;;;;;;13.23;6.50;;;4.40;96.80;;;;;;6123904;23;20053;-89
2021/12/07 09:57:55;;;;;;;15.73;5.63;;;4.40;96.70;;;;;;6117369;23;20017;-88
2021/12/07 10:00:35;;;;;;;15.73;5.95;;;4.40;96.70;;;;;;6209784;23;20088;-89
2021/12/07 10:07:01;;;;;;;;;;;;;;;;;;;;;
2021/12/07 10:09:39;;;;;;;17.20;5.97;;;4.50;96.70;;;;;;6186741;23;20088;-90
2021/12/07 10:15:37;;;;;;;17.88;6.18;;;4.50;96.70;;;;;;6180511;23;20017;-89
2021/12/07 10:18:33;;;;;;;;;;;;;;;;;;;;;
2021/12/07 10:21:30;;;;;;;13.23;5.55;;;4.60;96.80;;;;;;6186114;23;20519;-88
2021/12/07 10:24:10;;;;;;;15.63;5.97;;;4.70;96.80;;;;;;6182022;23;20021;-89
2021/12/07 10:26:48;;;;;;;9.85;5.10;;;4.70;96.70;;;;;;6185150;23;20017;-89
2021/12/07 10:29:52;;;;;;;14.07;5.30;;;4.80;96.80;;;;;;6209478;23;20009;-89
2021/12/07 10:32:51;;;;;;;18.33;5.30;;;4.80;96.70;;;;;;6190275;23;20423;-89
2021/12/07 10:36:10;;;;;;;;;;;;;;;;;;;;;
2021/12/07 10:38:45;;;;;;;16.38;6.00;;;4.90;96.70;;;;;;6186309;23;20080;-90
2021/12/07 10:41:23;;;;;;;12.18;5.10;;;4.90;96.70;;;;;;6209467;23;20144;-88
2021/12/07 10:44:06;;;;;;;14.85;6.20;;;4.90;96.70;;;;;;6210309;23;20001;-90
2021/12/07 10:49:55;;;;;;;13.18;4.80;;;5.00;96.70;;;;;;6188396;23;20009;-89
2021/12/07 10:52:45;;;;;;;14.27;5.30;;;5.10;96.70;;;;;;6212006;23;20024;-91
2021/12/07 10:59:09;;;;;;;;;;;;;;;;;;;;;
2021/12/07 11:02:33;;;;;;;;;;;;;;;;;;;;;
2021/12/07 11:05:08;;;;;;;;;;;;;;;;;;;;;
2021/12/07 11:07:56;;;;;;;12.38;4.22;;;5.30;96.70;;;;;;6196009;23;20012;-88
2021/12/07 11:11:13;;;;;;;;;;;;;;;;;;;;;
2021/12/07 11:14:47;;;;;;;14.32;4.93;;;5.30;96.70;;;;;;6207947;23;20016;-90
2021/12/07 11:18:16;;;;;;;;;;;;;;;;;;;;;
2021/12/07 11:21:14;;;;;;;12.40;4.60;;;5.40;96.70;;;;;;6182887;23;20084;-91
2021/12/07 11:24:15;;;;;;;;;;;;;;;;;;;;;
2021/12/07 11:31:04;;;;;;;;;;;;;;;;;;;;;
2021/12/07 11:38:15;;;;;;;;;;;;;;;;;;;;;
2021/12/07 11:40:55;;;;;;;11.88;4.53;;;5.60;96.60;;;;;;6032241;23;20011;-93
2021/12/07 11:43:48;;;;;;;;;;;;;;;;;;;;;
2021/12/07 11:50:07;;;;;;;10.75;5.15;;;5.70;96.50;;;;;;6128641;23;20009;-94
2021/12/07 11:53:04;;;;;;;13.25;5.15;;;5.80;96.50;;;;;;6189541;23;20027;-91
2021/12/07 12:12:32;;;;;;;;;;;5.90;96.40;;;;;;6048038;23;20003;-93
2021/12/07 12:19:05;;;;;;;9.43;4.25;;;5.90;96.30;;;;;;6157813;23;20009;-94
2021/12/07 12:22:00;;;;;;;10.27;3.88;;;5.90;96.30;;;;;;6144037;23;20088;-89
2021/12/07 12:39:14;;;;;;;;;;;;;;;;;;;;;
2021/12/07 12:56:40;;;;;;;;;;;;;;;;;;;;;
2021/12/07 12:59:48;;;;;;;;;;;;;;;;;;;;;
2021/12/07 13:13:52;;;;;;;8.82;3.22;;;6.00;96.00;;;;;;6033110;23;20015;-90
2021/12/07 13:24:26;;;;;;;;;;;;;;;;;;;;;
2021/12/07 13:30:59;;;;;;;12.13;3.45;;;6.00;95.90;;;;;;6066166;23;20086;-91
2021/12/07 13:38:03;;;;;;;;;;;;;;;;;;;;;
2021/12/07 14:02:14;;;;;;;;;;;;;;;;;;;;;
2021/12/07 14:05:36;;;;;;;;;;;;;;;;;;;;;
2021/12/07 14:08:42;;;;;;;;;;;;;;;;;;;;;
2021/12/07 14:12:17;;;;;;;;;;;;;;;;;;;;;
2021/12/07 14:18:34;;;;;;;;;;;;;;;;;;;;;
2021/12/07 14:32:45;;;;;;;;;;;;;;;;;;;;;
2021/12/07 14:35:48;;;;;;;10.13;3.42;;;5.60;95.60;;;;;;5958652;23;20086;-90
2021/12/07 14:38:48;;;;;;;10.23;3.38;;;5.50;95.60;;;;;;6130086;23;20064;-91
2021/12/07 14:45:17;;;;;;;8.60;3.03;;;5.50;95.60;;;;;;6186991;23;20009;-91
2021/12/07 15:02:53;;;;;;;;;;;;;;;;;;;;;
2021/12/07 15:09:33;;;;;;;;;;;;;;;;;;;;;
2021/12/07 15:12:54;;;;;;;;;;;;;;;;;;;;;
2021/12/07 15:16:07;;;;;;;8.75;3.03;;;5.30;95.60;;;;;;5934042;23;20092;-91
2021/12/07 15:18:48;;;;;;;;;;;;;;;;;;;;;
2021/12/07 15:32:06;;;;;;;;;;;;;;;;;;;;;
2021/12/07 15:42:20;;;;;;;;;;;;;;;;;;;;;
2021/12/07 18:48:42;;;;;;;8.05;3.22;;;4.80;94.30;;;;;;6178850;23;20082;-88
2021/12/07 18:51:13;;;;;;;6.45;2.50;;;4.80;94.20;;;;;;6185312;23;20104;-89
2021/12/07 18:53:47;;;;;;;7.22;2.55;;;4.80;94.20;;;;;;6184885;23;20006;-87
2021/12/07 18:56:18;;;;;;;5.90;2.80;;;4.80;94.30;;;;;;6186245;23;20009;-89
2021/12/07 18:58:50;;;;;;;7.82;2.50;;;4.80;94.20;;;;;;6186072;23;20052;-89
2021/12/07 19:01:19;;;;;;;7.90;2.70;;;4.90;94.30;;;;;;6186328;23;20134;-88
2021/12/07 19:04:11;;;;;;;12.32;2.95;;;4.90;94.10;;;;;;6160930;23;20009;-88
2021/12/07 19:06:39;;;;;;;9.45;2.72;;;4.90;94.20;;;;;;6185332;23;20028;-88
2021/12/07 19:09:08;;;;;;;3.97;2.17;;;4.90;94.10;;;;;;6186182;23;20371;-87
2021/12/07 19:11:38;;;;;;;6.75;2.88;;;4.90;94.20;;;;;;6187989;23;20016;-87
2021/12/07 19:14:10;;;;;;;11.45;2.80;;;4.90;94.20;;;;;;6187444;23;20008;-88
2021/12/07 19:16:40;;;;;;;;;;;4.90;94.20;;;;;;6188075;23;20005;-88
2021/12/07 19:19:10;;;;;;;7.30;2.63;;;4.90;94.10;;;;;;6186812;23;19946;-89
2021/12/07 19:21:47;;;;;;;7.60;3.13;;;4.80;94.10;;;;;;6188277;23;20032;-88
2021/12/07 19:24:13;;;;;;;10.02;3.05;;;4.90;94.10;;;;;;6186589;23;20072;-89
2021/12/07 19:32:52;;;;;;;;;;;;;;;;;;;;;
2021/12/07 19:35:27;;;;;;;8.35;3.53;;;4.90;94.20;;;;;;6188927;23;20486;-88
2021/12/07 19:38:10;;;;;;;8.18;3.00;;;4.90;94.10;;;;;;6188058;23;20005;-87
2021/12/07 19:40:46;;;;;;;8.40;3.53;;;4.90;94.20;;;;;;6188084;23;20005;-89
2021/12/07 19:43:27;;;;;;;7.85;2.90;;;4.90;94.20;;;;;;6186751;23;20013;-89
2021/12/07 19:46:04;;;;;;;12.02;3.25;;;4.90;94.20;;;;;;6163020;23;20008;-90
2021/12/07 19:48:36;;;;;;;7.25;3.00;;;4.90;94.10;;;;;;6189418;23;20013;-88
2021/12/07 19:51:11;;;;;;;7.03;2.70;;;4.90;94.10;;;;;;6166675;23;20005;-88
2021/12/07 19:53:45;;;;;;;7.70;2.90;;;5.00;94.20;;;;;;6177125;23;19996;-88
2021/12/07 19:56:23;;;;;;;10.23;3.17;;;5.00;94.20;;;;;;6214396;23;20005;-87
2021/12/07 19:59:10;;;;;;;5.28;2.53;;;5.00;94.10;;;;;;6188736;23;20000;-88
2021/12/07 20:01:52;;;;;;;11.52;3.00;;;5.00;94.20;;;;;;6209811;23;20009;-88
2021/12/07 20:04:32;;;;;;;;;;;;;;;;;;;;;
2021/12/07 20:07:01;;;;;;;9.90;3.38;;;5.10;94.10;;;;;;6189573;23;20024;-89
2021/12/07 20:09:27;;;;;;;7.13;2.92;;;5.10;94.00;;;;;;6162848;23;20482;-86
2021/12/07 20:12:07;;;;;;;8.02;2.67;;;5.10;94.00;;;;;;6188963;23;20004;-89
2021/12/07 20:14:48;;;;;;;;;;;;;;;;;;;;;
2021/12/07 20:17:57;;;;;;;9.32;3.38;;;5.10;94.00;;;;;;6192796;23;20469;-89
2021/12/07 20:20:37;;;;;;;;;;;;;;;;;;;;;
2021/12/07 20:23:21;;;;;;;7.93;3.00;;;5.10;94.10;;;;;;6195024;23;20036;-87
2021/12/07 20:26:21;;;;;;;11.85;3.75;;;5.20;94.10;;;;;;6164083;23;20001;-87
2021/12/07 20:29:10;;;;;;;8.02;3.20;;;5.20;94.00;;;;;;6154567;23;20021;-88
2021/12/07 20:31:49;;;;;;;6.53;3.40;;;5.10;94.00;;;;;;6161821;23;20006;-87
2021/12/07 20:34:42;;;;;;;7.97;3.65;;;5.20;94.00;;;;;;6187705;23;20484;-88
2021/12/07 20:37:18;;;;;;;8.73;3.08;;;5.20;94.00;;;;;;6161187;23;20012;-87
2021/12/07 20:43:10;;;;;;;;;;;;;;;;;;;;;
2021/12/07 20:45:44;;;;;;;12.18;3.63;;;5.20;94.00;;;;;;6187813;23;20079;-89
2021/12/07 20:48:11;;;;;;;10.73;3.90;;;5.20;94.00;;;;;;6161932;23;20039;-89
2021/12/07 20:50:37;;;;;;;5.03;2.90;;;5.20;94.00;;;;;;6161967;23;20035;-88
2021/12/07 20:53:13;;;;;;;8.40;3.58;;;5.30;94.10;;;;;;6186199;23;20005;-88
2021/12/07 20:55:50;;;;;;;7.35;3.33;;;5.30;94.10;;;;;;6165173;23;20442;-89
2021/12/07 20:58:19;;;;;;;7.65;3.22;;;5.30;94.20;;;;;;6192071;23;20005;-87
2021/12/07 21:00:47;;;;;;;6.63;3.00;;;5.30;94.20;;;;;;6188686;23;20035;-86
2021/12/07 21:03:22;;;;;;;8.48;3.58;;;5.30;94.20;;;;;;6165900;23;20032;-88
2021/12/07 21:06:08;;;;;;;6.90;2.60;;;5.40;94.30;;;;;;6188754;23;19997;-88
2021/12/07 21:08:55;;;;;;;;;;;;;;;;;;;;;
2021/12/07 21:14:52;;;;;;;6.20;3.00;;;5.40;94.40;;;;;;6156710;23;20028;-88
2021/12/07 21:17:40;;;;;;;7.78;3.60;;;5.40;94.60;;;;;;6162128;23;20005;-88
2021/12/07 21:20:08;;;;;;;5.65;2.80;;;5.40;94.40;;;;;;6172329;23;20008;-89
2021/12/07 21:22:34;;;;;;;8.93;3.33;;;5.40;94.40;;;;;;6187115;23;20057;-88
2021/12/07 21:25:10;;;;;;;8.25;3.28;;;5.40;94.40;;;;;;6185636;23;20012;-88
2021/12/07 21:27:54;;;;;;;;;;;;;;;;;;;;;
2021/12/07 21:30:24;;;;;;;8.10;3.40;;;5.40;94.50;;;;;;6189267;23;20092;-88
2021/12/07 21:32:59;;;;;;;10.43;3.22;;;5.40;94.50;;;;;;6187316;23;20039;-89
2021/12/07 21:35:33;;;;;;;9.73;3.63;;;5.40;94.60;;;;;;6161076;23;20021;-87
2021/12/07 21:38:08;;;;;;;9.43;3.15;;;5.40;94.60;;;;;;6160791;23;20008;-88
2021/12/07 21:40:50;;;;;;;;;;;;;;;;;;;;;
2021/12/07 21:43:31;;;;;;;4.75;2.88;;;5.40;94.70;;;;;;6187295;23;20073;-89
2021/12/07 21:46:09;;;;;;;5.50;3.17;;;5.40;94.80;;;;;;6136587;23;20052;-88
2021/12/07 21:48:54;;;;;;;5.75;2.80;;;5.40;94.90;;;;;;6160904;23;20016;-88
2021/12/07 21:51:35;;;;;;;6.85;2.67;;;5.30;94.90;;;;;;6136818;23;20086;-87
2021/12/07 21:54:10;;;;;;;6.40;2.88;;;5.40;95.00;;;;;;6161252;23;20001;-89
2021/12/07 21:56:42;;;;;;;4.93;2.67;;;5.30;95.00;;;;;;6161330;23;20005;-88
2021/12/07 21:59:09;;;;;;;6.68;2.72;;;5.30;95.10;;;;;;6160649;23;20006;-88
2021/12/07 22:01:39;;;;;;;7.50;2.67;;;5.30;95.10;;;;;;6160716;23;20089;-88
2021/12/07 22:04:13;;;;;;;7.10;2.85;;;5.40;95.10;;;;;;6187071;23;20001;-89
2021/12/07 22:06:42;;;;;;;7.45;3.03;;;5.40;95.10;;;;;;6186106;23;20001;-89
2021/12/07 22:09:09;;;;;;;7.57;2.58;;;5.30;95.20;;;;;;6160350;23;20027;-88
2021/12/07 22:11:37;;;;;;;5.57;2.97;;;5.30;95.20;;;;;;6160413;23;20345;-88
2021/12/07 22:14:04;;;;;;;7.38;2.47;;;5.30;95.30;;;;;;6186480;23;20434;-88
2021/12/07 22:16:35;;;;;;;5.35;2.47;;;5.30;95.30;;;;;;6160593;23;20416;-87
2021/12/07 22:19:14;;;;;;;6.95;3.08;;;5.30;95.40;;;;;;6137167;23;20040;-88
2021/12/07 22:21:43;;;;;;;8.57;2.88;;;5.30;95.40;;;;;;6160645;23;19997;-87
2021/12/07 22:24:14;;;;;;;4.53;2.08;;;5.30;95.50;;;;;;6186456;23;20008;-88
2021/12/07 22:26:44;;;;;;;8.27;2.97;;;5.30;95.50;;;;;;6160866;23;20008;-88
2021/12/07 22:29:11;;;;;;;5.50;2.30;;;5.30;95.50;;;;;;6160340;23;20052;-88
2021/12/07 22:31:47;;;;;;;5.97;2.47;;;5.30;95.60;;;;;;6160805;23;20001;-88
2021/12/07 22:34:19;;;;;;;7.72;3.20;;;5.30;95.60;;;;;;6160796;23;20416;-89
2021/12/07 22:36:45;;;;;;;5.82;2.13;;;5.30;95.60;;;;;;6187276;23;20002;-87
2021/12/07 22:39:13;;;;;;;7.20;2.55;;;5.30;95.60;;;;;;6186081;23;20012;-87
2021/12/07 22:41:41;;;;;;;5.72;2.60;;;5.30;95.60;;;;;;6187621;23;20001;-87
2021/12/07 22:44:08;;;;;;;6.22;2.58;;;5.30;95.60;;;;;;6189604;23;20012;-89
2021/12/07 22:46:41;;;;;;;7.85;2.53;;;5.40;95.60;;;;;;6175538;23;19997;-88
2021/12/07 22:49:13;;;;;;;7.18;2.80;;;5.40;95.60;;;;;;6186993;23;20035;-88
2021/12/07 22:51:42;;;;;;;4.50;2.30;;;5.40;95.60;;;;;;6188595;23;19989;-88
2021/12/07 22:54:30;;;;;;;7.30;2.72;;;5.40;95.60;;;;;;6188035;23;20343;-87
2021/12/07 22:56:59;;;;;;;9.20;3.15;;;5.40;95.70;;;;;;6138976;23;20386;-88
2021/12/07 22:59:38;;;;;;;9.32;2.60;;;5.40;95.60;;;;;;6163244;23;20084;-87
2021/12/07 23:02:05;;;;;;;7.20;2.75;;;5.40;95.60;;;;;;6162800;23;20427;-88
2021/12/07 23:05:12;;;;;;;6.90;2.53;;;5.40;95.70;;;;;;6162739;23;20005;-88
2021/12/07 23:07:58;;;;;;;7.07;2.47;;;5.40;95.70;;;;;;6061918;23;20330;-88
2021/12/07 23:10:33;;;;;;;7.00;2.50;;;5.40;95.70;;;;;;6187554;23;20009;-87
2021/12/07 23:13:15;;;;;;;;;;;;;;;;;;;;;
2021/12/07 23:15:51;;;;;;;7.00;2.33;;;5.40;95.70;;;;;;6189260;23;20110;-89
2021/12/07 23:18:31;;;;;;;7.35;2.97;;;5.40;95.70;;;;;;6162594;23;20055;-88
2021/12/07 23:21:08;;;;;;;3.35;2.05;;;5.40;95.70;;;;;;6138852;23;20088;-88
2021/12/07 23:24:00;;;;;;;6.50;3.15;;;5.40;95.70;;;;;;6162672;23;20013;-88
2021/12/07 23:26:40;;;;;;;8.98;2.95;;;5.40;95.80;;;;;;6161769;23;20031;-88
2021/12/07 23:29:09;;;;;;;7.80;2.63;;;5.40;95.80;;;;;;6162189;23;20446;-87
2021/12/07 23:31:47;;;;;;;6.85;2.47;;;5.40;95.80;;;;;;6162251;23;20036;-87
2021/12/07 23:34:13;;;;;;;5.53;2.22;;;5.40;95.90;;;;;;6188599;23;20005;-88
2021/12/07 23:36:48;;;;;;;6.82;2.58;;;5.40;95.90;;;;;;6186682;23;20400;-88
2021/12/07 23:39:24;;;;;;;6.55;2.40;;;5.40;95.90;;;;;;6162099;23;20032;-88
2021/12/07 23:41:52;;;;;;;5.93;2.80;;;5.40;96.00;;;;;;6162209;23;20001;-87
2021/12/07 23:44:23;;;;;;;7.20;2.65;;;5.40;95.90;;;;;;6137099;23;20005;-88
2021/12/07 23:46:49;;;;;;;4.50;2.23;;;5.40;95.90;;;;;;6162473;23;20001;-88
2021/12/07 23:49:26;;;;;;;3.85;2.63;;;5.40;95.90;;;;;;6188277;23;20606;-89
2021/12/07 23:51:54;;;;;;;5.13;2.10;;;5.40;96.00;;;;;;6162402;23;20005;-88
2021/12/07 23:54:28;;;;;;;5.35;2.40;;;5.40;96.00;;;;;;6186597;23;20005;-86
2021/12/07 23:57:02;;;;;;;7.57;2.55;;;5.40;96.00;;;;;;6187129;23;20426;-87
2021/12/07 23:59:28;;;;;;;6.28;2.58;;;5.40;96.00;;;;;;6186456;23;20080;-87
